Time;durP1;ratioP1;P1;durP2;ratioP2;P2;SDS_P1;SDS_P2;PMS_P1;PMS_P2;Temp;Humidity;BMP_temperature;BMP_pressure;BME280_temperature;BME280_humidity;BME280_pressure;Samples;Min_cycle;Max_cycle;Signal;HPM_P1;HPM_P2
2021/10/12 00:01:20;;;;;;;31.87;17.52;;;;;;;7.76;83.97;100719.05;1761590;81;21010;-81
2021/10/12 00:03:46;;;;;;;25.95;15.98;;;;;;;7.75;84.00;100721.34;1761515;81;21506;-81
2021/10/12 00:06:12;;;;;;;29.67;16.30;;;;;;;7.77;84.03;100719.40;1735691;81;21651;-81
2021/10/12 00:08:40;;;;;;;28.52;15.90;;;;;;;7.78;84.05;100721.05;1761057;81;21481;-81
2021/10/12 00:11:06;;;;;;;26.37;15.35;;;;;;;7.81;84.07;100722.13;1760404;81;21600;-81
2021/10/12 00:13:33;;;;;;;28.67;16.23;;;;;;;7.82;84.07;100722.44;1760810;81;21577;-81
2021/10/12 00:15:59;;;;;;;23.47;14.47;;;;;;;7.84;84.11;100724.48;1761401;81;21022;-81
2021/10/12 00:18:25;;;;;;;28.62;15.43;;;;;;;7.84;84.14;100720.50;1761411;81;21117;-81
2021/10/12 00:20:51;;;;;;;23.18;14.00;;;;;;;7.84;84.16;100723.16;1761502;81;21534;-82
2021/10/12 00:23:17;;;;;;;21.77;13.28;;;;;;;7.83;84.18;100717.00;1761408;81;20990;-81
2021/10/12 00:25:43;;;;;;;27.93;13.95;;;;;;;7.82;84.21;100710.02;1761473;81;21029;-81
2021/10/12 00:28:09;;;;;;;21.10;13.58;;;;;;;7.84;84.24;100707.22;1761574;81;21101;-81
2021/10/12 00:30:35;;;;;;;27.35;14.47;;;;;;;7.84;84.25;100707.22;1761170;81;21057;-81
2021/10/12 00:33:01;;;;;;;22.93;15.03;;;;;;;7.84;84.27;100705.89;1761266;81;21034;-81
2021/10/12 00:35:27;;;;;;;23.70;13.78;;;;;;;7.85;84.31;100708.88;1735222;81;21072;-81
2021/10/12 00:37:53;;;;;;;25.43;14.93;;;;;;;7.87;84.29;100700.29;1761594;81;21053;-81
2021/10/12 00:40:19;;;;;;;22.62;15.03;;;;;;;7.87;84.33;100704.27;1761654;81;21539;-81
2021/10/12 00:42:45;;;;;;;21.80;14.65;;;;;;;7.88;84.35;100700.64;1761693;81;21811;-81
2021/10/12 00:45:12;;;;;;;18.12;11.95;;;;;;;7.88;84.35;100694.01;1761000;81;21029;-81
2021/10/12 00:47:38;;;;;;;19.32;11.88;;;;;;;7.89;84.35;100691.67;1761414;81;21108;-81
2021/10/12 00:50:08;;;;;;;20.25;11.55;;;;;;;7.89;84.37;100683.70;1761679;80;21535;-81
2021/10/12 00:52:35;;;;;;;16.70;11.70;;;;;;;7.90;84.37;100678.75;1761024;81;21009;-81
2021/10/12 00:55:01;;;;;;;18.70;12.05;;;;;;;7.91;84.39;100677.30;1761587;81;21788;-81
2021/10/12 00:57:27;;;;;;;18.05;11.83;;;;;;;7.91;84.40;100675.13;1761326;81;21002;-81
2021/10/12 00:59:53;;;;;;;21.23;12.23;;;;;;;7.92;84.40;100676.29;1761253;81;21010;-81
2021/10/12 01:02:19;;;;;;;16.15;9.78;;;;;;;7.92;84.42;100674.96;1761664;81;21014;-81
2021/10/12 01:04:46;;;;;;;19.20;10.58;;;;;;;7.92;84.42;100671.47;1761559;81;21034;-81
2021/10/12 01:07:12;;;;;;;24.72;10.78;;;;;;;7.94;84.44;100670.36;1761885;81;20998;-81
2021/10/12 01:09:40;;;;;;;16.05;9.95;;;;;;;7.93;84.45;100679.78;1761322;81;21467;-81
2021/10/12 01:12:06;;;;;;;19.50;9.75;;;;;;;7.93;84.45;100674.48;1761512;81;21076;-81
2021/10/12 01:14:32;;;;;;;16.57;9.65;;;;;;;7.94;84.45;100682.31;1761273;81;21050;-81
2021/10/12 01:16:58;;;;;;;15.10;8.80;;;;;;;7.93;84.45;100671.82;1761373;81;21026;-81
2021/10/12 01:19:24;;;;;;;15.25;8.50;;;;;;;7.92;84.45;100674.96;1761395;81;21116;-81
2021/10/12 01:21:50;;;;;;;16.73;9.38;;;;;;;7.90;84.45;100669.46;1761582;81;21002;-81
2021/10/12 01:24:16;;;;;;;14.63;8.63;;;;;;;7.86;84.45;100671.57;1761548;81;20910;-81
2021/10/12 01:26:43;;;;;;;18.02;8.53;;;;;;;7.83;84.45;100671.02;1761244;81;21509;-81
2021/10/12 01:29:12;;;;;;;15.10;8.45;;;;;;;7.78;84.48;100662.65;1761395;81;21010;-81
2021/10/12 01:31:38;;;;;;;23.18;14.18;;;;;;;7.76;84.48;100664.14;1761215;81;21235;-81
2021/10/12 01:34:18;;;;;;;18.17;9.78;;;;;;;7.75;84.48;100661.13;1761253;81;21080;-81
2021/10/12 01:36:44;;;;;;;15.88;8.63;;;;;;;7.75;84.48;100660.28;1760455;81;21002;-81
2021/10/12 01:39:10;;;;;;;17.90;9.03;;;;;;;7.73;84.45;100659.61;1761623;81;21014;-81
2021/10/12 01:41:36;;;;;;;14.93;9.08;;;;;;;7.72;84.47;100657.92;1761489;81;21053;-81
2021/10/12 01:44:03;;;;;;;14.43;8.88;;;;;;;7.72;84.45;100655.27;1760988;81;21046;-81
2021/10/12 01:46:29;;;;;;;14.70;8.45;;;;;;;7.71;84.45;100653.59;1761373;81;21082;-81
2021/10/12 01:48:55;;;;;;;16.32;8.78;;;;;;;7.69;84.44;100651.59;1761278;81;21033;-81
2021/10/12 01:51:21;;;;;;;12.73;8.08;;;;;;;7.68;84.45;100646.77;1761626;81;20851;-82
2021/10/12 01:53:47;;;;;;;13.95;8.55;;;;;;;7.67;84.46;100641.62;1761467;81;21497;-81
2021/10/12 01:56:13;;;;;;;14.63;7.75;;;;;;;7.65;84.44;100639.58;1761423;81;21872;-81
2021/10/12 01:58:39;;;;;;;15.70;7.90;;;;;;;7.62;84.44;100635.89;1761400;81;21018;-81
2021/10/12 02:01:05;;;;;;;14.90;8.18;;;;;;;7.57;84.45;100635.48;1761102;81;21128;-81
2021/10/12 02:03:31;;;;;;;14.95;8.63;;;;;;;7.51;84.42;100637.75;1761499;81;21053;-81
2021/10/12 02:05:57;;;;;;;16.93;8.45;;;;;;;7.46;84.44;100640.47;1761197;81;21045;-81
2021/10/12 02:08:23;;;;;;;18.92;9.10;;;;;;;7.39;84.45;100636.23;1761319;81;21142;-81
2021/10/12 02:10:49;;;;;;;14.50;8.18;;;;;;;7.34;84.44;100633.19;1761354;81;21475;-81
2021/10/12 02:13:15;;;;;;;17.40;10.90;;;;;;;7.29;84.44;100629.28;1761545;81;21526;-81
2021/10/12 02:15:41;;;;;;;19.62;10.82;;;;;;;7.24;84.44;100629.73;1761334;81;21010;-81
2021/10/12 02:18:08;;;;;;;26.37;13.50;;;;;;;7.22;84.44;100625.52;1761489;81;21021;-81
2021/10/12 02:20:34;;;;;;;21.65;12.07;;;;;;;7.18;84.45;100619.67;1761628;81;21127;-81
2021/10/12 02:23:00;;;;;;;23.55;12.50;;;;;;;7.14;84.43;100614.33;1761190;81;20997;-81
2021/10/12 02:25:26;;;;;;;22.87;13.98;;;;;;;7.12;84.43;100622.90;1761403;81;21073;-82
2021/10/12 02:27:52;;;;;;;22.90;14.50;;;;;;;7.09;84.45;100622.34;1761456;81;21593;-81
2021/10/12 02:30:18;;;;;;;26.75;14.05;;;;;;;7.05;84.45;100616.48;1761198;81;21029;-81
2021/10/12 02:32:44;;;;;;;27.02;13.43;;;;;;;7.02;84.46;100620.75;1753636;81;21058;-81
2021/10/12 02:35:10;;;;;;;36.25;16.82;;;;;;;6.99;84.47;100613.09;1747084;82;20996;-81
2021/10/12 02:37:36;;;;;;;25.20;12.40;;;;;;;6.97;84.48;100620.33;1781818;80;21113;-81
2021/10/12 02:40:02;;;;;;;21.65;11.60;;;;;;;6.95;84.50;100613.86;1781555;80;20875;-81
2021/10/12 02:42:28;;;;;;;22.80;10.08;;;;;;;6.96;84.49;100610.23;1781454;80;21472;-81
2021/10/12 02:44:54;;;;;;;22.37;10.60;;;;;;;6.97;84.48;100613.70;1781373;80;21503;-81
2021/10/12 02:47:20;;;;;;;20.97;10.30;;;;;;;6.95;84.51;100612.53;1781567;80;20951;-81
2021/10/12 02:49:46;;;;;;;19.62;10.88;;;;;;;6.97;84.55;100610.56;1781621;80;20955;-81
2021/10/12 02:52:12;;;;;;;18.73;9.35;;;;;;;6.99;84.53;100600.67;1781746;80;21013;-81
2021/10/12 02:54:38;;;;;;;19.05;10.25;;;;;;;7.02;84.55;100603.52;1781660;80;20983;-81
2021/10/12 02:57:04;;;;;;;21.52;9.93;;;;;;;7.04;84.57;100600.22;1781701;80;22157;-81
2021/10/12 02:59:30;;;;;;;17.42;9.98;;;;;;;7.08;84.59;100602.94;1781561;80;21019;-81
2021/10/12 03:01:56;;;;;;;18.98;8.98;;;;;;;7.08;84.60;100600.29;1781582;80;21034;-81
2021/10/12 03:04:22;;;;;;;18.73;8.90;;;;;;;7.10;84.64;100603.66;1781692;80;21542;-81
2021/10/12 03:06:48;;;;;;;25.02;10.40;;;;;;;7.13;84.66;100595.89;1781765;80;21006;-81
2021/10/12 03:09:14;;;;;;;22.40;9.90;;;;;;;7.13;84.67;100600.71;1781865;80;21159;-81
2021/10/12 03:11:40;;;;;;;16.15;9.80;;;;;;;7.14;84.69;100602.39;1781641;80;21011;-81
2021/10/12 03:14:06;;;;;;;21.50;10.30;;;;;;;7.15;84.70;100597.41;1781802;80;20967;-81
2021/10/12 03:16:32;;;;;;;22.13;12.25;;;;;;;7.16;84.73;100601.75;1781931;80;20971;-81
2021/10/12 03:18:58;;;;;;;22.62;10.95;;;;;;;7.17;84.75;100594.15;1781826;80;20990;-81
2021/10/12 03:21:32;;;;;;;18.07;9.20;;;;;;;7.15;84.75;100590.78;1781997;80;21142;-81
2021/10/12 03:23:53;;;;;;;24.02;9.73;;;;;;;7.13;84.75;100579.98;1780468;80;20959;-81
2021/10/12 03:26:19;;;;;;;21.12;9.80;;;;;;;7.11;84.76;100584.09;1781776;80;20982;-81
2021/10/12 03:28:45;;;;;;;28.90;10.18;;;;;;;7.09;84.79;100584.73;1781784;80;21459;-81
2021/10/12 03:31:11;;;;;;;19.67;9.08;;;;;;;7.07;84.77;100584.54;1781985;80;21548;-81
2021/10/12 03:33:37;;;;;;;24.20;10.05;;;;;;;7.05;84.80;100576.72;1781486;80;21135;-81
2021/10/12 03:36:13;;;;;;;21.48;9.90;;;;;;;7.05;84.79;100579.37;1781501;80;20971;-81
2021/10/12 03:38:31;;;;;;;17.23;8.58;;;;;;;7.04;84.78;100583.83;1779704;80;21011;-81
2021/10/12 03:40:57;;;;;;;19.32;9.28;;;;;;;7.02;84.79;100574.35;1781722;80;21444;-81
2021/10/12 03:43:26;;;;;;;25.45;9.83;;;;;;;6.98;84.80;100576.45;1781343;80;20990;-81
2021/10/12 03:45:52;;;;;;;22.27;10.10;;;;;;;6.97;84.80;100582.73;1781623;80;21442;-81
2021/10/12 03:48:18;;;;;;;19.62;9.38;;;;;;;6.97;84.80;100573.93;1781969;80;20940;-81
2021/10/12 03:50:44;;;;;;;17.55;8.50;;;;;;;6.98;84.79;100575.61;1781770;80;21006;-81
2021/10/12 03:53:10;;;;;;;17.75;7.95;;;;;;;6.97;84.79;100576.58;1781674;80;20963;-81
2021/10/12 03:55:36;;;;;;;19.82;7.72;;;;;;;6.97;84.80;100560.67;1781855;80;21517;-81
2021/10/12 03:58:02;;;;;;;18.00;7.80;;;;;;;6.98;84.78;100562.36;1781372;80;22097;-81
2021/10/12 04:00:28;;;;;;;12.95;7.25;;;;;;;6.98;84.77;100565.01;1781804;80;21282;-81
2021/10/12 04:02:54;;;;;;;20.17;10.40;;;;;;;6.98;84.75;100561.03;1782158;80;20971;-81
2021/10/12 04:05:20;;;;;;;18.70;11.57;;;;;;;6.97;84.76;100556.70;1781701;80;20951;-81
2021/10/12 04:07:47;;;;;;;17.77;12.28;;;;;;;6.93;84.77;100556.15;1781819;80;20990;-81
2021/10/12 04:10:13;;;;;;;16.17;8.53;;;;;;;6.92;84.74;100553.17;1781717;80;21782;-81
2021/10/12 04:12:40;;;;;;;19.75;9.83;;;;;;;6.91;84.75;100551.97;1781589;80;20975;-81
2021/10/12 04:15:07;;;;;;;16.35;8.25;;;;;;;6.88;84.75;100548.29;1781795;80;20975;-81
2021/10/12 04:17:33;;;;;;;20.72;8.90;;;;;;;6.85;84.74;100548.58;1781822;80;21483;-81
2021/10/12 04:19:59;;;;;;;14.75;7.42;;;;;;;6.84;84.76;100550.88;1781785;80;21452;-81
2021/10/12 04:22:25;;;;;;;16.15;8.50;;;;;;;6.86;84.74;100543.63;1781743;80;21766;-81
2021/10/12 04:24:51;;;;;;;16.85;7.92;;;;;;;6.90;84.75;100535.23;1781684;80;20955;-81
2021/10/12 04:27:17;;;;;;;13.48;6.78;;;;;;;6.94;84.75;100529.99;1781678;80;20982;-81
2021/10/12 04:29:43;;;;;;;16.30;8.08;;;;;;;6.96;84.73;100529.86;1781758;80;21042;-81
2021/10/12 04:32:10;;;;;;;16.97;7.65;;;;;;;6.98;84.75;100535.36;1781374;80;21029;-81
2021/10/12 04:34:38;;;;;;;16.37;8.15;;;;;;;7.01;84.74;100535.06;1781811;80;21492;-81
2021/10/12 04:37:04;;;;;;;14.18;7.70;;;;;;;7.02;84.74;100531.93;1781642;80;21014;-81
2021/10/12 04:39:30;;;;;;;13.53;8.63;;;;;;;7.03;84.73;100529.64;1781912;80;21002;-81
2021/10/12 04:42:01;;;;;;;22.00;9.08;;;;;;;7.06;84.73;100527.17;1781710;80;21033;-81
2021/10/12 04:44:28;;;;;;;17.00;7.50;;;;;;;7.07;84.75;100524.39;1781514;80;21507;-81
2021/10/12 04:46:54;;;;;;;20.62;8.95;;;;;;;7.09;84.74;100519.77;1781979;80;21131;-81
2021/10/12 04:49:20;;;;;;;22.85;9.20;;;;;;;7.11;84.75;100521.77;1781746;80;21018;-81
2021/10/12 04:51:47;;;;;;;18.80;12.47;;;;;;;7.11;84.75;100520.45;1781822;80;21003;-81
2021/10/12 04:54:13;;;;;;;22.50;15.23;;;;;;;7.10;84.72;100516.14;1781586;80;20951;-81
2021/10/12 04:56:39;;;;;;;18.70;12.90;;;;;;;7.09;84.74;100521.09;1781797;80;21034;-80
2021/10/12 04:59:05;;;;;;;18.55;10.65;;;;;;;7.10;84.75;100520.12;1781625;80;20999;-81
2021/10/12 05:01:31;;;;;;;19.55;10.53;;;;;;;7.12;84.74;100522.13;1781699;80;21431;-81
2021/10/12 05:03:57;;;;;;;24.23;9.13;;;;;;;7.14;84.73;100524.16;1781703;80;21490;-81
2021/10/12 05:06:23;;;;;;;19.02;9.43;;;;;;;7.16;84.72;100518.21;1781505;80;20947;-81
2021/10/12 05:08:49;;;;;;;20.75;8.53;;;;;;;7.18;84.73;100516.75;1781855;80;20964;-81
2021/10/12 05:11:15;;;;;;;18.42;8.05;;;;;;;7.17;84.71;100519.89;1781302;80;21141;-81
2021/10/12 05:13:41;;;;;;;14.68;6.53;;;;;;;7.17;84.71;100526.52;1781707;80;21027;-81
2021/10/12 05:16:12;;;;;;;16.15;6.55;;;;;;;7.18;84.72;100522.86;1781835;80;20848;-81
2021/10/12 05:18:40;;;;;;;10.23;5.62;;;;;;;7.18;84.72;100521.54;1781576;80;21766;-81
2021/10/12 05:21:06;;;;;;;14.53;6.10;;;;;;;7.17;84.70;100519.05;1781712;80;20983;-81
2021/10/12 05:23:32;;;;;;;16.95;5.85;;;;;;;7.12;84.71;100522.13;1781798;80;22122;-81
2021/10/12 05:25:58;;;;;;;16.40;5.92;;;;;;;7.08;84.69;100523.39;1781729;80;20967;-81
2021/10/12 05:28:25;;;;;;;19.27;6.12;;;;;;;7.07;84.70;100523.06;1781513;80;21023;-81
2021/10/12 05:30:51;;;;;;;18.23;7.67;;;;;;;7.09;84.70;100517.12;1781870;80;21026;-81
2021/10/12 05:33:18;;;;;;;15.68;6.12;;;;;;;7.12;84.69;100516.83;1773526;80;21413;-81
2021/10/12 05:35:45;;;;;;;18.90;6.75;;;;;;;7.13;84.67;100520.31;1761004;81;21183;-81
2021/10/12 05:38:11;;;;;;;13.85;7.03;;;;;;;7.16;84.67;100518.21;1760831;81;21003;-81
2021/10/12 05:40:37;;;;;;;12.78;6.67;;;;;;;7.19;84.66;100518.40;1760869;81;21084;-81
2021/10/12 05:43:03;;;;;;;17.57;9.25;;;;;;;7.20;84.67;100520.92;1760590;81;21553;-81
2021/10/12 05:45:29;;;;;;;19.00;8.15;;;;;;;7.21;84.67;100514.64;1760890;80;21022;-81
2021/10/12 05:47:55;;;;;;;32.40;16.90;;;;;;;7.22;84.66;100515.45;1778854;80;21090;-81
2021/10/12 05:50:21;;;;;;;16.07;10.80;;;;;;;7.24;84.66;100515.67;1762225;80;21100;-81
2021/10/12 05:58:12;;;;;;;13.25;5.87;;;;;;;7.33;84.66;100508.64;1760695;79;21025;-84
2021/10/12 06:00:38;;;;;;;15.65;5.20;;;;;;;7.35;84.63;100504.84;1755476;79;23018;-83
2021/10/12 06:03:04;;;;;;;9.85;4.45;;;;;;;7.39;84.63;100506.23;1757852;80;21082;-84
2021/10/12 06:05:30;;;;;;;10.90;4.40;;;;;;;7.41;84.60;100510.08;1766731;80;21069;-85
2021/10/12 06:07:56;;;;;;;13.03;4.10;;;;;;;7.45;84.57;100514.95;1763823;80;21471;-86
2021/10/12 06:10:22;;;;;;;11.08;3.85;;;;;;;7.47;84.55;100516.95;1754900;80;21081;-83
2021/10/12 06:12:50;;;;;;;16.60;4.28;;;;;;;7.47;84.53;100512.98;1765718;80;21139;-81
2021/10/12 06:15:16;;;;;;;15.13;4.00;;;;;;;7.50;84.53;100513.16;1760024;80;21044;-81
2021/10/12 06:17:42;;;;;;;6.37;3.20;;;;;;;7.51;84.47;100513.03;1766576;81;21541;-81
2021/10/12 06:20:09;;;;;;;10.65;3.47;;;;;;;7.54;84.47;100510.08;1756437;80;20985;-82
2021/10/12 06:22:35;;;;;;;8.78;3.22;;;;;;;7.57;84.41;100504.12;1751649;80;21107;-81
2021/10/12 06:25:01;;;;;;;10.40;3.85;;;;;;;7.61;84.39;100514.78;1767187;81;21192;-81
2021/10/12 06:27:27;;;;;;;20.48;5.00;;;;;;;7.65;84.36;100512.19;1765709;80;21024;-82
2021/10/12 06:29:53;;;;;;;19.87;5.67;;;;;;;7.67;84.33;100502.27;1758275;80;20989;-81
2021/10/12 06:32:19;;;;;;;17.27;6.17;;;;;;;7.71;84.28;100504.95;1753440;80;21095;-81
2021/10/12 06:34:45;;;;;;;18.40;7.45;;;;;;;7.76;84.28;100504.02;1756578;80;21031;-81
2021/10/12 06:37:11;;;;;;;19.90;9.50;;;;;;;7.78;84.21;100499.38;1751188;81;21050;-81
2021/10/12 06:39:37;;;;;;;24.72;10.40;;;;;;;7.78;84.15;100499.38;1763880;81;21121;-81
2021/10/12 06:42:03;;;;;;;27.30;12.50;;;;;;;7.80;84.10;100505.39;1763358;81;20990;-81
2021/10/12 06:44:29;;;;;;;24.95;12.65;;;;;;;7.82;84.07;100504.74;1758439;80;21097;-81
2021/10/12 06:46:55;;;;;;;25.02;9.50;;;;;;;7.87;84.03;100511.78;1755810;80;21028;-81
2021/10/12 06:49:21;;;;;;;29.52;10.80;;;;;;;7.93;83.97;100509.84;1753146;80;21158;-81
2021/10/12 06:51:47;;;;;;;28.27;10.28;;;;;;;7.96;83.91;100504.22;1756237;80;21097;-81
2021/10/12 06:54:13;;;;;;;26.37;9.13;;;;;;;8.02;83.85;100500.99;1765889;80;20987;-81
2021/10/12 06:56:40;;;;;;;17.87;6.50;;;;;;;8.07;83.80;100500.52;1762710;80;21051;-81
2021/10/12 06:59:06;;;;;;;13.32;4.78;;;;;;;8.17;83.75;100491.48;1763736;80;21019;-81
2021/10/12 07:01:32;;;;;;;12.85;5.12;;;;;;;8.22;83.71;100483.91;1760727;80;21067;-82
2021/10/12 07:03:58;;;;;;;16.55;6.15;;;;;;;8.30;83.67;100480.00;1755883;80;20994;-81
2021/10/12 07:06:24;;;;;;;15.75;5.70;;;;;;;8.36;83.62;100474.09;1756874;80;21045;-83
2021/10/12 07:08:50;;;;;;;15.43;5.40;;;;;;;8.36;83.56;100484.73;1703948;82;21017;-80
2021/10/12 07:11:16;;;;;;;11.80;5.60;;;;;;;8.42;83.49;100480.12;1718756;82;21620;-80
2021/10/12 07:13:42;;;;;;;14.18;5.22;;;;;;;8.53;83.45;100481.70;1706286;82;21838;-82
2021/10/12 07:16:08;;;;;;;21.65;6.78;;;;;;;8.61;83.41;100478.27;1688960;84;21050;-82
2021/10/12 07:18:34;;;;;;;12.65;4.53;;;;;;;8.67;83.36;100467.84;1761157;80;21140;-82
2021/10/12 07:21:00;;;;;;;9.20;3.77;;;;;;;8.72;83.29;100467.38;1756813;80;21487;-82
2021/10/12 07:23:26;;;;;;;10.65;3.20;;;;;;;8.80;83.22;100470.07;1756886;80;21553;-82
2021/10/12 07:25:52;;;;;;;13.50;4.37;;;;;;;9.11;83.19;100465.95;1766589;80;21075;-83
2021/10/12 07:28:18;;;;;;;14.07;5.62;;;;;;;9.32;83.07;100477.00;1760161;80;21058;-83
2021/10/12 07:30:44;;;;;;;13.45;4.00;;;;;;;9.46;83.01;100469.73;1751460;80;21006;-82
2021/10/12 07:33:10;;;;;;;13.98;5.47;;;;;;;9.44;82.88;100465.08;1757556;80;21010;-82
2021/10/12 07:35:42;;;;;;;6.17;4.10;;;;;;;9.36;82.83;100470.36;1787481;79;21035;-81
2021/10/12 07:38:04;;;;;;;11.08;5.67;;;;;;;9.36;82.73;100465.05;1784561;79;21326;-81
2021/10/12 07:40:30;;;;;;;14.03;4.85;;;;;;;9.36;82.66;100469.03;1789974;79;21012;-81
2021/10/12 07:42:56;;;;;;;12.60;3.22;;;;;;;9.48;82.61;100456.28;1785882;79;21520;-81
2021/10/12 07:45:22;;;;;;;11.30;3.22;;;;;;;9.50;82.49;100448.45;1780185;80;21601;-82
2021/10/12 07:47:48;;;;;;;11.70;3.02;;;;;;;9.43;82.32;100448.77;1782467;79;21009;-82
2021/10/12 07:50:15;;;;;;;9.05;3.33;;;;;;;9.29;82.23;100451.23;1786880;79;21124;-81
2021/10/12 07:52:43;;;;;;;8.60;4.08;;;;;;;9.20;82.16;100456.16;1782899;79;21071;-84
2021/10/12 07:55:14;;;;;;;27.37;3.90;;;;;;;9.14;82.05;100457.66;1784228;79;21010;-84
2021/10/12 07:57:39;;;;;;;9.73;4.30;;;;;;;9.21;82.02;100448.53;1787008;79;21101;-84
2021/10/12 08:00:09;;;;;;;5.72;3.27;;;;;;;9.36;81.91;100456.22;1781840;79;21458;-85
2021/10/12 08:02:34;;;;;;;12.95;4.42;;;;;;;9.40;81.79;100451.75;1785495;79;21739;-86
2021/10/12 08:05:00;;;;;;;10.55;4.30;;;;;;;9.35;81.64;100450.09;1782051;79;20988;-85
2021/10/12 08:07:26;;;;;;;15.63;4.83;;;;;;;9.21;81.47;100445.38;1785028;79;21026;-85
2021/10/12 08:09:52;;;;;;;7.28;4.20;;;;;;;9.19;81.41;100435.87;1785135;79;21126;-85
2021/10/12 08:12:18;;;;;;;8.25;4.62;;;;;;;9.16;81.34;100442.34;1785778;79;20998;-85
2021/10/12 08:14:51;;;;;;;12.47;5.22;;;;;;;9.14;81.24;100435.53;1783846;79;21085;-85
2021/10/12 08:17:14;;;;;;;14.20;6.25;;;;;;;9.09;81.12;100430.67;1785412;79;21012;-86
2021/10/12 08:19:40;;;;;;;10.25;6.33;;;;;;;9.16;81.09;100431.70;1786139;79;21083;-86
2021/10/12 08:22:06;;;;;;;11.63;5.70;;;;;;;9.24;81.02;100431.75;1792769;79;21002;-85
2021/10/12 08:24:32;;;;;;;11.83;8.25;;;;;;;9.22;80.94;100423.08;1786680;79;20982;-86
2021/10/12 08:26:58;;;;;;;16.75;8.03;;;;;;;9.17;80.87;100421.91;1784838;79;21082;-85
2021/10/12 08:29:24;;;;;;;15.88;6.78;;;;;;;9.10;80.80;100420.88;1787224;79;21022;-85
2021/10/12 08:31:50;;;;;;;17.90;8.48;;;;;;;9.04;80.73;100413.86;1790140;79;21558;-85
2021/10/12 08:34:16;;;;;;;14.30;7.83;;;;;;;9.00;80.67;100418.34;1773163;79;21023;-84
2021/10/12 08:36:42;;;;;;;13.68;8.23;;;;;;;8.98;80.63;100417.66;1762959;80;21017;-85
2021/10/12 08:39:08;;;;;;;16.32;8.60;;;;;;;8.96;80.60;100409.02;1753923;80;21145;-84
2021/10/12 08:41:55;;;;;;;17.95;8.08;;;;;;;8.96;80.60;100414.33;1756254;81;21562;-84
2021/10/12 08:44:21;;;;;;;21.25;11.75;;;;;;;8.95;80.57;100415.31;1748943;80;21658;-84
2021/10/12 08:46:47;;;;;;;19.23;10.38;;;;;;;8.87;80.54;100409.95;1753951;79;21624;-85
2021/10/12 08:49:13;;;;;;;15.25;10.63;;;;;;;8.81;80.52;100405.27;1756213;80;21029;-83
2021/10/12 08:51:43;;;;;;;24.85;12.40;;;;;;;8.80;80.52;100401.77;1759491;80;21048;-83
2021/10/12 08:54:11;;;;;;;;;;;;;;;8.79;80.55;100396.63;1763191;79;21044;-81
2021/10/12 08:56:38;;;;;;;22.93;14.20;;;;;;;8.80;80.56;100400.94;1763215;80;20162;-83
2021/10/12 08:59:04;;;;;;;21.17;13.53;;;;;;;8.80;80.59;100396.45;1765982;80;21148;-81
2021/10/12 09:01:32;;;;;;;30.92;17.55;;;;;;;8.81;80.63;100399.95;1758657;80;21043;-80
2021/10/12 09:06:33;;;;;;;20.45;12.43;;;;;;;8.75;80.73;100381.98;1748812;80;21032;-80
2021/10/12 09:09:05;;;;;;;18.23;11.57;;;;;;;8.73;80.79;100379.96;1758844;80;21407;-80
2021/10/12 09:11:33;;;;;;;18.40;12.20;;;;;;;8.71;80.83;100378.81;1760139;80;21095;-81
2021/10/12 09:14:02;;;;;;;22.95;12.73;;;;;;;8.75;80.88;100374.01;1757337;80;21072;-80
2021/10/12 09:16:33;;;;;;;18.85;12.18;;;;;;;8.84;80.94;100373.05;1762513;80;21475;-81
2021/10/12 09:18:59;;;;;;;19.95;13.30;;;;;;;8.90;80.95;100375.09;1765016;80;21626;-81
2021/10/12 09:21:30;;;;;;;18.55;12.47;;;;;;;8.97;81.00;100370.80;1761949;80;21117;-81
2021/10/12 09:24:10;;;;;;;17.42;12.30;;;;;;;9.02;81.04;100361.82;1756961;80;21037;-81
2021/10/12 09:26:39;;;;;;;13.88;10.08;;;;;;;9.04;81.10;100354.53;1757660;80;21060;-80
2021/10/12 09:29:45;;;;;;;21.27;12.47;;;;;;;9.06;81.14;100351.20;1755979;80;21295;-81
2021/10/12 09:32:08;;;;;;;20.57;15.80;;;;;;;9.02;81.15;100349.84;1731300;80;21572;-81
2021/10/12 09:34:35;;;;;;;21.85;12.33;;;;;;;9.00;81.24;100343.88;1777090;78;21012;-82
2021/10/12 09:37:01;;;;;;;15.85;11.65;;;;;;;8.94;81.25;100339.17;1769675;79;21043;-82
2021/10/12 09:39:43;;;;;;;21.15;13.00;;;;;;;8.84;81.33;100337.14;1772890;80;21015;-82
2021/10/12 09:42:12;;;;;;;16.87;11.65;;;;;;;8.77;81.34;100337.45;1772753;81;21131;-81
2021/10/12 09:44:52;;;;;;;12.60;11.18;;;;;;;8.79;81.42;100320.36;1772842;81;21376;-82
2021/10/12 09:47:18;;;;;;;15.90;11.90;;;;;;;8.83;81.47;100326.19;1772620;81;21082;-82
2021/10/12 09:49:45;;;;;;;16.37;10.05;;;;;;;8.86;81.52;100325.37;1738947;82;21102;-82
2021/10/12 09:52:13;;;;;;;14.28;10.68;;;;;;;8.89;81.51;100316.23;1772884;81;20995;-82
2021/10/12 09:54:49;;;;;;;13.38;8.28;;;;;;;8.84;81.57;100316.70;1772695;81;21146;-82
2021/10/12 09:57:19;;;;;;;20.85;12.88;;;;;;;8.77;81.58;100316.17;1771521;80;21063;-82
2021/10/12 09:59:46;;;;;;;21.45;13.70;;;;;;;8.70;81.65;100313.82;1738962;82;21519;-82
2021/10/12 10:02:20;;;;;;;25.27;15.95;;;;;;;8.71;81.69;100312.34;1738825;82;21020;-83
2021/10/12 10:04:46;;;;;;;16.50;10.80;;;;;;;8.79;81.73;100309.73;1772904;81;21019;-82
2021/10/12 10:07:36;;;;;;;13.50;9.10;;;;;;;8.95;81.80;100306.27;1738798;82;21145;-82
2021/10/12 10:10:06;;;;;;;;;;;;;;;9.12;81.85;100300.00;1745358;81;20995;-82
2021/10/12 10:12:33;;;;;;;12.03;8.68;;;;;;;9.50;81.94;100287.90;1772666;81;20161;-82
2021/10/12 10:14:59;;;;;;;12.80;9.53;;;;;;;9.66;81.93;100285.75;1772914;81;21582;-82
2021/10/12 10:17:25;;;;;;;12.28;9.15;;;;;;;9.72;81.90;100286.41;1772973;80;21457;-82
2021/10/12 10:19:51;;;;;;;10.93;8.65;;;;;;;9.77;81.97;100282.77;1772984;81;21082;-83
2021/10/12 10:22:47;;;;;;;13.05;8.55;;;;;;;9.75;81.96;100282.08;1738166;82;21019;-83
2021/10/12 10:25:32;;;;;;;10.05;6.05;;;;;;;9.79;81.97;100279.41;1772208;81;21039;-83
2021/10/12 10:28:22;;;;;;;13.03;7.40;;;;;;;9.74;81.91;100287.93;1772964;81;20995;-83
2021/10/12 10:30:59;;;;;;;7.15;5.47;;;;;;;9.70;81.92;100287.09;1738163;82;36729;-82
2021/10/12 10:33:28;;;;;;;13.10;8.30;;;;;;;9.81;81.92;100281.43;1772570;80;21177;-83
2021/10/12 10:35:58;;;;;;;9.73;6.60;;;;;;;9.98;81.89;100284.41;1772638;81;21488;-83
2021/10/12 10:38:43;;;;;;;8.78;6.00;;;;;;;10.21;81.84;100273.88;1772859;81;21074;-83
2021/10/12 10:41:19;;;;;;;9.75;6.20;;;;;;;10.41;81.75;100277.31;1738995;82;21008;-83
2021/10/12 10:44:00;;;;;;;10.95;7.12;;;;;;;10.50;81.52;100274.97;1772274;80;21000;-83
2021/10/12 10:46:37;;;;;;;7.60;5.85;;;;;;;10.49;81.40;100264.46;1738810;82;21245;-83
2021/10/12 10:49:16;;;;;;;10.63;6.03;;;;;;;10.64;81.32;100261.91;1772865;81;20963;-83
2021/10/12 10:52:02;;;;;;;56.15;41.30;;;;;;;10.68;81.17;100268.06;1772629;81;21047;-83
2021/10/12 10:54:46;;;;;;;14.25;9.43;;;;;;;10.78;81.10;100253.17;1772825;81;21035;-83
2021/10/12 10:57:15;;;;;;;10.18;6.85;;;;;;;10.95;81.03;100250.73;1738843;82;21008;-84
2021/10/12 10:59:41;;;;;;;12.93;5.53;;;;;;;11.04;80.84;100248.36;1772771;81;21988;-83
2021/10/12 11:02:30;;;;;;;9.83;4.53;;;;;;;10.93;80.61;100244.75;1772712;81;20976;-84
2021/10/12 11:04:56;;;;;;;5.62;3.30;;;;;;;10.80;80.42;100235.17;1772901;81;21531;-83
2021/10/12 11:07:27;;;;;;;7.60;3.10;;;;;;;10.66;80.18;100233.25;1772878;81;21511;-83
2021/10/12 11:09:53;;;;;;;6.30;3.90;;;;;;;10.66;80.04;100234.58;1738715;82;21016;-83
2021/10/12 11:12:25;;;;;;;4.90;2.62;;;;;;;10.74;79.94;100227.84;1772832;81;21139;-83
2021/10/12 11:14:52;;;;;;;4.25;2.40;;;;;;;10.77;79.75;100231.49;1708007;82;21040;-83
2021/10/12 11:17:18;;;;;;;4.47;2.65;;;;;;;10.72;79.59;100229.88;1772884;80;20992;-83
2021/10/12 11:19:59;;;;;;;6.40;3.00;;;;;;;10.70;79.50;100226.03;1738948;82;21055;-83
2021/10/12 11:22:26;;;;;;;6.37;3.55;;;;;;;10.77;79.43;100214.98;1772671;80;20996;-83
2021/10/12 11:24:52;;;;;;;10.35;5.00;;;;;;;10.75;79.31;100220.18;1738878;82;21032;-83
2021/10/12 11:27:18;;;;;;;37.40;18.60;;;;;;;10.74;79.20;100214.52;1772950;80;21448;-83
2021/10/12 11:29:44;;;;;;;30.48;15.40;;;;;;;10.60;79.03;100221.42;1738777;82;21063;-83
2021/10/12 11:32:10;;;;;;;31.55;15.08;;;;;;;10.50;78.98;100208.31;1738862;81;21035;-83